sensor_id;sensor_type;location;lat;lon;timestamp;temperature;humidity
53432;DHT22;39329;44.754;19.680;2022-08-07T05:36:53;33.90;78.40
53432;DHT22;39329;44.754;19.680;2022-08-07T05:39:20;34.20;78.10
53432;DHT22;39329;44.754;19.680;2022-08-07T05:41:46;34.10;97.30
53432;DHT22;39329;44.754;19.680;2022-08-07T05:44:14;34.70;77.10
53432;DHT22;39329;44.754;19.680;2022-08-07T05:46:41;35.00;76.00
53432;DHT22;39329;44.754;19.680;2022-08-07T05:49:08;34.60;75.70
53432;DHT22;39329;44.754;19.680;2022-08-07T05:51:34;35.40;75.50
53432;DHT22;39329;44.754;19.680;2022-08-07T05:54:00;35.50;73.30
53432;DHT22;39329;44.754;19.680;2022-08-07T05:56:26;35.80;74.10
53432;DHT22;39329;44.754;19.680;2022-08-07T05:58:52;35.00;73.70
53432;DHT22;39329;44.754;19.680;2022-08-07T06:03:46;33.90;75.40
53432;DHT22;39329;44.754;19.680;2022-08-07T06:06:12;35.10;75.10
53432;DHT22;39329;44.754;19.680;2022-08-07T06:08:38;35.70;79.50
53432;DHT22;39329;44.754;19.680;2022-08-07T06:13:30;36.50;98.10
53432;DHT22;39329;44.754;19.680;2022-08-07T06:15:56;36.40;75.00
53432;DHT22;39329;44.754;19.680;2022-08-07T06:18:22;36.20;72.10
53432;DHT22;39329;44.754;19.680;2022-08-07T06:25:40;37.40;85.70
53432;DHT22;39329;44.754;19.680;2022-08-07T06:28:06;37.80;70.40
53432;DHT22;39329;44.754;19.680;2022-08-07T06:30:36;37.80;70.60
53432;DHT22;39329;44.754;19.680;2022-08-07T06:33:02;38.00;71.70
53432;DHT22;39329;44.754;19.680;2022-08-07T06:35:28;38.00;84.60
53432;DHT22;39329;44.754;19.680;2022-08-07T06:37:53;37.40;92.10
53432;DHT22;39329;44.754;19.680;2022-08-07T06:40:20;38.00;93.30
53432;DHT22;39329;44.754;19.680;2022-08-07T06:42:47;38.50;69.40
53432;DHT22;39329;44.754;19.680;2022-08-07T06:45:14;38.50;68.60
53432;DHT22;39329;44.754;19.680;2022-08-07T06:47:40;37.80;72.40
53432;DHT22;39329;44.754;19.680;2022-08-07T06:50:06;37.70;72.90
53432;DHT22;39329;44.754;19.680;2022-08-07T06:52:33;38.00;72.70
53432;DHT22;39329;44.754;19.680;2022-08-07T06:59:51;39.90;90.70
53432;DHT22;39329;44.754;19.680;2022-08-07T07:02:20;40.00;95.00
53432;DHT22;39329;44.754;19.680;2022-08-07T07:04:46;39.90;84.30
53432;DHT22;39329;44.754;19.680;2022-08-07T07:09:43;41.00;85.20
53432;DHT22;39329;44.754;19.680;2022-08-07T07:14:52;40.20;66.90
53432;DHT22;39329;44.754;19.680;2022-08-07T07:17:32;39.90;66.60
53432;DHT22;39329;44.754;19.680;2022-08-07T07:19:59;39.60;66.70
53432;DHT22;39329;44.754;19.680;2022-08-07T07:22:25;39.60;66.90
53432;DHT22;39329;44.754;19.680;2022-08-07T07:24:52;39.80;66.80
53432;DHT22;39329;44.754;19.680;2022-08-07T07:27:18;40.20;66.40
53432;DHT22;39329;44.754;19.680;2022-08-07T07:29:47;39.80;66.20
53432;DHT22;39329;44.754;19.680;2022-08-07T07:32:13;39.60;67.70
53432;DHT22;39329;44.754;19.680;2022-08-07T07:34:41;39.80;66.90
53432;DHT22;39329;44.754;19.680;2022-08-07T07:37:08;39.40;66.80
53432;DHT22;39329;44.754;19.680;2022-08-07T07:39:35;39.30;67.00
53432;DHT22;39329;44.754;19.680;2022-08-07T07:42:01;39.50;66.80
53432;DHT22;39329;44.754;19.680;2022-08-07T07:46:54;38.70;66.70
53432;DHT22;39329;44.754;19.680;2022-08-07T07:49:20;39.40;67.60
53432;DHT22;39329;44.754;19.680;2022-08-07T07:51:47;39.40;67.30
53432;DHT22;39329;44.754;19.680;2022-08-07T07:54:13;39.80;67.70
53432;DHT22;39329;44.754;19.680;2022-08-07T07:56:39;39.50;67.60
53432;DHT22;39329;44.754;19.680;2022-08-07T07:59:05;39.30;67.70
53432;DHT22;39329;44.754;19.680;2022-08-07T08:01:32;39.00;68.20
53432;DHT22;39329;44.754;19.680;2022-08-07T08:03:59;39.50;68.10
53432;DHT22;39329;44.754;19.680;2022-08-07T08:06:26;39.00;89.10
53432;DHT22;39329;44.754;19.680;2022-08-07T08:08:52;39.30;75.60
53432;DHT22;39329;44.754;19.680;2022-08-07T08:11:19;39.10;87.40
53432;DHT22;39329;44.754;19.680;2022-08-07T08:13:46;39.20;76.50
53432;DHT22;39329;44.754;19.680;2022-08-07T08:16:13;38.80;68.60
53432;DHT22;39329;44.754;19.680;2022-08-07T08:18:41;39.00;68.00
53432;DHT22;39329;44.754;19.680;2022-08-07T08:21:07;38.60;69.30
53432;DHT22;39329;44.754;19.680;2022-08-07T08:23:53;38.50;69.40
53432;DHT22;39329;44.754;19.680;2022-08-07T08:26:38;38.00;69.60
53432;DHT22;39329;44.754;19.680;2022-08-07T08:29:22;37.90;69.70
53432;DHT22;39329;44.754;19.680;2022-08-07T08:31:48;37.30;70.30
53432;DHT22;39329;44.754;19.680;2022-08-07T08:34:15;37.60;70.70
53432;DHT22;39329;44.754;19.680;2022-08-07T08:36:42;37.20;70.50
53432;DHT22;39329;44.754;19.680;2022-08-07T08:39:08;37.50;70.90
53432;DHT22;39329;44.754;19.680;2022-08-07T08:46:40;37.80;70.80
53432;DHT22;39329;44.754;19.680;2022-08-07T08:52:10;37.20;71.90
53432;DHT22;39329;44.754;19.680;2022-08-07T08:57:25;36.80;71.30
53432;DHT22;39329;44.754;19.680;2022-08-07T08:59:52;36.30;71.70
53432;DHT22;39329;44.754;19.680;2022-08-07T09:02:35;35.80;72.50
53432;DHT22;39329;44.754;19.680;2022-08-07T09:07:47;35.40;73.00
53432;DHT22;39329;44.754;19.680;2022-08-07T09:10:39;35.30;73.20
53432;DHT22;39329;44.754;19.680;2022-08-07T09:15:50;35.50;72.70
53432;DHT22;39329;44.754;19.680;2022-08-07T09:20:48;35.90;73.20
53432;DHT22;39329;44.754;19.680;2022-08-07T09:23:21;35.80;73.80
53432;DHT22;39329;44.754;19.680;2022-08-07T09:26:00;35.80;73.50
53432;DHT22;39329;44.754;19.680;2022-08-07T09:28:29;35.50;73.50
53432;DHT22;39329;44.754;19.680;2022-08-07T09:31:01;35.60;73.50
53432;DHT22;39329;44.754;19.680;2022-08-07T09:36:38;35.10;74.20
53432;DHT22;39329;44.754;19.680;2022-08-07T09:51:45;35.20;83.20
53432;DHT22;39329;44.754;19.680;2022-08-07T09:54:20;34.90;82.90
53432;DHT22;39329;44.754;19.680;2022-08-07T10:10:08;34.80;75.20
53432;DHT22;39329;44.754;19.680;2022-08-07T10:17:58;35.10;75.00
53432;DHT22;39329;44.754;19.680;2022-08-07T10:28:48;35.30;74.70
53432;DHT22;39329;44.754;19.680;2022-08-07T10:31:28;35.10;74.40
53432;DHT22;39329;44.754;19.680;2022-08-07T10:41:26;35.40;75.30
53432;DHT22;39329;44.754;19.680;2022-08-07T10:46:28;35.70;74.90
53432;DHT22;39329;44.754;19.680;2022-08-07T10:49:14;35.50;74.70
53432;DHT22;39329;44.754;19.680;2022-08-07T10:51:55;35.30;74.60
53432;DHT22;39329;44.754;19.680;2022-08-07T11:02:14;35.50;75.20
53432;DHT22;39329;44.754;19.680;2022-08-07T11:07:36;35.30;74.10
53432;DHT22;39329;44.754;19.680;2022-08-07T11:10:04;35.50;74.50
53432;DHT22;39329;44.754;19.680;2022-08-07T11:12:37;35.40;74.60
53432;DHT22;39329;44.754;19.680;2022-08-07T11:15:08;35.20;73.90
53432;DHT22;39329;44.754;19.680;2022-08-07T11:17:47;35.80;75.00
53432;DHT22;39329;44.754;19.680;2022-08-07T11:20:18;35.30;73.90
53432;DHT22;39329;44.754;19.680;2022-08-07T11:25:41;35.60;74.50
53432;DHT22;39329;44.754;19.680;2022-08-07T11:28:10;35.40;74.50
53432;DHT22;39329;44.754;19.680;2022-08-07T11:30:48;35.60;74.80
53432;DHT22;39329;44.754;19.680;2022-08-07T11:33:32;35.40;73.90
53432;DHT22;39329;44.754;19.680;2022-08-07T11:36:05;35.50;74.20
53432;DHT22;39329;44.754;19.680;2022-08-07T11:38:36;35.60;74.30
53432;DHT22;39329;44.754;19.680;2022-08-07T11:41:08;35.20;74.70
53432;DHT22;39329;44.754;19.680;2022-08-07T11:46:55;35.00;75.20
53432;DHT22;39329;44.754;19.680;2022-08-07T11:49:05;35.10;80.00
53432;DHT22;39329;44.754;19.680;2022-08-07T11:54:41;35.30;78.10
53432;DHT22;39329;44.754;19.680;2022-08-07T12:05:31;35.20;78.20
53432;DHT22;39329;44.754;19.680;2022-08-07T12:08:06;35.40;78.60
53432;DHT22;39329;44.754;19.680;2022-08-07T12:10:56;35.40;78.60
53432;DHT22;39329;44.754;19.680;2022-08-07T12:15:57;35.10;78.30
53432;DHT22;39329;44.754;19.680;2022-08-07T12:21:04;35.10;77.90
53432;DHT22;39329;44.754;19.680;2022-08-07T12:31:37;35.40;77.20
53432;DHT22;39329;44.754;19.680;2022-08-07T12:34:05;35.30;77.10
53432;DHT22;39329;44.754;19.680;2022-08-07T12:36:31;35.20;76.70
53432;DHT22;39329;44.754;19.680;2022-08-07T12:38:57;35.10;76.30
53432;DHT22;39329;44.754;19.680;2022-08-07T12:41:24;34.80;84.00
53432;DHT22;39329;44.754;19.680;2022-08-07T12:43:50;34.70;99.30
53432;DHT22;39329;44.754;19.680;2022-08-07T12:51:17;35.10;75.20
53432;DHT22;39329;44.754;19.680;2022-08-07T12:53:48;35.10;75.20
53432;DHT22;39329;44.754;19.680;2022-08-07T12:56:21;35.30;75.00
53432;DHT22;39329;44.754;19.680;2022-08-07T12:58:49;35.30;75.00
53432;DHT22;39329;44.754;19.680;2022-08-07T13:06:28;35.10;75.10
53432;DHT22;39329;44.754;19.680;2022-08-07T13:16:54;35.20;75.60
53432;DHT22;39329;44.754;19.680;2022-08-07T13:19:38;35.20;75.40
53432;DHT22;39329;44.754;19.680;2022-08-07T13:29:55;35.30;75.60
53432;DHT22;39329;44.754;19.680;2022-08-07T13:35:07;34.90;75.50
53432;DHT22;39329;44.754;19.680;2022-08-07T13:37:40;34.70;75.30
53432;DHT22;39329;44.754;19.680;2022-08-07T13:42:37;35.10;75.40
53432;DHT22;39329;44.754;19.680;2022-08-07T13:45:06;35.10;75.40
53432;DHT22;39329;44.754;19.680;2022-08-07T13:47:36;35.20;76.00
53432;DHT22;39329;44.754;19.680;2022-08-07T13:50:02;35.30;75.80
53432;DHT22;39329;44.754;19.680;2022-08-07T13:52:31;35.10;74.70
53432;DHT22;39329;44.754;19.680;2022-08-07T13:54:57;34.90;75.00
53432;DHT22;39329;44.754;19.680;2022-08-07T13:57:25;35.10;75.20
53432;DHT22;39329;44.754;19.680;2022-08-07T13:59:51;35.00;75.70
53432;DHT22;39329;44.754;19.680;2022-08-07T14:02:20;35.00;76.30
53432;DHT22;39329;44.754;19.680;2022-08-07T14:04:47;34.80;75.50
53432;DHT22;39329;44.754;19.680;2022-08-07T14:07:14;34.70;75.30
53432;DHT22;39329;44.754;19.680;2022-08-07T14:09:40;34.70;75.70
53432;DHT22;39329;44.754;19.680;2022-08-07T14:12:10;34.70;75.60
53432;DHT22;39329;44.754;19.680;2022-08-07T14:14:41;35.00;75.80
53432;DHT22;39329;44.754;19.680;2022-08-07T14:17:07;34.90;74.80
53432;DHT22;39329;44.754;19.680;2022-08-07T14:19:35;35.10;75.70
53432;DHT22;39329;44.754;19.680;2022-08-07T14:22:02;35.20;75.80
53432;DHT22;39329;44.754;19.680;2022-08-07T14:24:28;35.00;75.50
53432;DHT22;39329;44.754;19.680;2022-08-07T14:27:02;34.90;75.10
53432;DHT22;39329;44.754;19.680;2022-08-07T14:29:32;34.90;74.80
53432;DHT22;39329;44.754;19.680;2022-08-07T14:32:00;34.90;75.00
53432;DHT22;39329;44.754;19.680;2022-08-07T14:34:26;34.80;75.60
53432;DHT22;39329;44.754;19.680;2022-08-07T14:36:53;34.80;75.20
53432;DHT22;39329;44.754;19.680;2022-08-07T14:39:19;34.90;75.10
53432;DHT22;39329;44.754;19.680;2022-08-07T14:41:47;34.90;75.50
53432;DHT22;39329;44.754;19.680;2022-08-07T14:44:13;34.90;75.50
53432;DHT22;39329;44.754;19.680;2022-08-07T14:46:40;34.90;75.70
53432;DHT22;39329;44.754;19.680;2022-08-07T14:49:06;34.80;75.10
53432;DHT22;39329;44.754;19.680;2022-08-07T14:51:32;35.00;75.30
53432;DHT22;39329;44.754;19.680;2022-08-07T14:53:59;34.90;74.90
53432;DHT22;39329;44.754;19.680;2022-08-07T14:56:27;34.80;75.30
53432;DHT22;39329;44.754;19.680;2022-08-07T14:59:02;34.80;75.50
53432;DHT22;39329;44.754;19.680;2022-08-07T15:01:35;34.70;75.40
53432;DHT22;39329;44.754;19.680;2022-08-07T15:04:04;34.70;75.40
53432;DHT22;39329;44.754;19.680;2022-08-07T15:06:31;34.70;75.60
53432;DHT22;39329;44.754;19.680;2022-08-07T15:09:05;34.80;75.20
53432;DHT22;39329;44.754;19.680;2022-08-07T15:11:34;34.70;75.50
53432;DHT22;39329;44.754;19.680;2022-08-07T15:14:02;34.70;75.40
53432;DHT22;39329;44.754;19.680;2022-08-07T15:16:43;34.70;75.10
53432;DHT22;39329;44.754;19.680;2022-08-07T15:19:16;34.70;75.40
53432;DHT22;39329;44.754;19.680;2022-08-07T15:21:43;34.80;75.70
53432;DHT22;39329;44.754;19.680;2022-08-07T15:24:11;34.80;75.80
53432;DHT22;39329;44.754;19.680;2022-08-07T15:26:45;34.70;75.20
53432;DHT22;39329;44.754;19.680;2022-08-07T15:29:13;34.70;75.30
53432;DHT22;39329;44.754;19.680;2022-08-07T15:31:40;34.70;75.40
53432;DHT22;39329;44.754;19.680;2022-08-07T15:34:06;34.60;75.50
53432;DHT22;39329;44.754;19.680;2022-08-07T15:36:33;34.60;75.70
53432;DHT22;39329;44.754;19.680;2022-08-07T15:39:03;34.60;75.70
53432;DHT22;39329;44.754;19.680;2022-08-07T15:41:29;34.50;75.50
53432;DHT22;39329;44.754;19.680;2022-08-07T15:44:02;34.50;76.00
53432;DHT22;39329;44.754;19.680;2022-08-07T15:46:28;34.40;76.20
53432;DHT22;39329;44.754;19.680;2022-08-07T15:48:54;34.40;76.80
53432;DHT22;39329;44.754;19.680;2022-08-07T15:51:22;34.40;75.70
53432;DHT22;39329;44.754;19.680;2022-08-07T15:53:50;34.30;75.80
53432;DHT22;39329;44.754;19.680;2022-08-07T15:56:16;34.20;75.90
53432;DHT22;39329;44.754;19.680;2022-08-07T16:01:13;33.90;76.00
53432;DHT22;39329;44.754;19.680;2022-08-07T16:03:39;33.90;76.30
53432;DHT22;39329;44.754;19.680;2022-08-07T16:06:08;33.90;76.10
53432;DHT22;39329;44.754;19.680;2022-08-07T16:08:35;33.90;76.20
53432;DHT22;39329;44.754;19.680;2022-08-07T16:11:07;33.80;76.30
53432;DHT22;39329;44.754;19.680;2022-08-07T16:13:38;33.70;76.30
53432;DHT22;39329;44.754;19.680;2022-08-07T16:16:15;33.70;76.50
53432;DHT22;39329;44.754;19.680;2022-08-07T16:21:23;33.60;76.10
53432;DHT22;39329;44.754;19.680;2022-08-07T16:24:01;33.50;76.20
53432;DHT22;39329;44.754;19.680;2022-08-07T16:32:07;33.40;76.30
53432;DHT22;39329;44.754;19.680;2022-08-07T16:34:38;33.40;79.40
53432;DHT22;39329;44.754;19.680;2022-08-07T16:39:57;33.30;79.90
53432;DHT22;39329;44.754;19.680;2022-08-07T16:47:55;33.20;77.10
53432;DHT22;39329;44.754;19.680;2022-08-07T17:11:32;32.50;78.60
53432;DHT22;39329;44.754;19.680;2022-08-07T17:14:05;32.50;78.70
53432;DHT22;39329;44.754;19.680;2022-08-07T17:16:48;32.50;78.90
53432;DHT22;39329;44.754;19.680;2022-08-07T17:21:59;32.30;78.80
53432;DHT22;39329;44.754;19.680;2022-08-07T17:27:03;32.30;78.70
53432;DHT22;39329;44.754;19.680;2022-08-07T17:29:48;32.10;79.10
53432;DHT22;39329;44.754;19.680;2022-08-07T17:32:23;32.10;79.40
53432;DHT22;39329;44.754;19.680;2022-08-07T17:34:55;31.90;79.70
53432;DHT22;39329;44.754;19.680;2022-08-07T17:37:26;31.90;80.20
53432;DHT22;39329;44.754;19.680;2022-08-07T17:45:03;31.80;80.20
53432;DHT22;39329;44.754;19.680;2022-08-07T17:47:49;31.70;80.30
53432;DHT22;39329;44.754;19.680;2022-08-07T17:50:26;31.60;80.30
53432;DHT22;39329;44.754;19.680;2022-08-07T17:52:56;31.50;80.40
53432;DHT22;39329;44.754;19.680;2022-08-07T17:55:27;31.50;80.50
53432;DHT22;39329;44.754;19.680;2022-08-07T18:00:26;31.40;80.80
53432;DHT22;39329;44.754;19.680;2022-08-07T18:02:57;31.40;80.90
53432;DHT22;39329;44.754;19.680;2022-08-07T18:05:28;31.30;81.10
53432;DHT22;39329;44.754;19.680;2022-08-07T18:08:09;31.30;81.50
53432;DHT22;39329;44.754;19.680;2022-08-07T18:10:41;31.10;81.80
53432;DHT22;39329;44.754;19.680;2022-08-07T18:13:15;31.10;82.20
53432;DHT22;39329;44.754;19.680;2022-08-07T18:15:54;31.00;82.30
53432;DHT22;39329;44.754;19.680;2022-08-07T18:18:21;31.00;82.60
53432;DHT22;39329;44.754;19.680;2022-08-07T18:20:51;30.90;82.60
53432;DHT22;39329;44.754;19.680;2022-08-07T18:23:26;30.80;82.80
53432;DHT22;39329;44.754;19.680;2022-08-07T18:26:00;30.80;83.20
53432;DHT22;39329;44.754;19.680;2022-08-07T18:28:34;30.70;83.40
53432;DHT22;39329;44.754;19.680;2022-08-07T18:31:16;30.50;99.90
53432;DHT22;39329;44.754;19.680;2022-08-07T18:33:56;30.60;99.90
53432;DHT22;39329;44.754;19.680;2022-08-07T18:37:18;30.60;84.60
53432;DHT22;39329;44.754;19.680;2022-08-07T18:47:35;30.30;98.80
53432;DHT22;39329;44.754;19.680;2022-08-07T19:00:10;30.10;85.70
53432;DHT22;39329;44.754;19.680;2022-08-07T19:02:39;30.00;85.40
53432;DHT22;39329;44.754;19.680;2022-08-07T19:05:07;30.00;85.70
53432;DHT22;39329;44.754;19.680;2022-08-07T19:07:41;30.00;85.70
53432;DHT22;39329;44.754;19.680;2022-08-07T19:10:11;30.00;85.70
